2026 5000m RowErg Rankings

Weight: All | Gender: F | Ages: All | Country: All | All Results | Adaptive: No

Pos. Name Age Country Time Type Verified
450 Sofia Rosa 47 POR 21:47.3 R Yes
452 Lauren Elizabeth 43 NZL 21:47.4 R Yes
453 Lily Boyle 34 USA 21:47.5 R Yes
453 Deborah Speed 61 GBR 21:47.5 R No
455 Julia Pauker 38 CAN 21:47.6 R Yes
456 Anna Parker 51 USA 21:47.7 R Yes
457 Eizabeth Sheldon 55 USA 21:47.8 R No
458 Ludovica Fina 16 SGP 21:48.1 R Yes
459 Tammy Bronson 56 USA 21:48.3 R Yes
459 Deanna Throesch 40 USA 21:48.3 R No
461 Lauren Emery 41 GBR 21:48.7 R Yes
462 Christina Hogegard 41 SWE 21:49.4 R Yes
463 Sandra Gosa 65 LAT 21:49.5 R Yes
463 Margaret Greenhall 57 GBR 21:49.5 R No
465 Susan Bowes 63 USA 21:49.7 R Yes
465 Lee-Ann Kraus 50 CAN 21:49.7 R Yes
465 Frederique Mattei 64 FRA 21:49.7 R Yes
468 Yadira León Hernandez 37 MEX 21:49.8 R Yes
468 Sarah Powell 56 GBR 21:49.8 R Yes
470 Mary Hayes 66 USA 21:50.0 R No
471 Anna Macfarlane 46 NZL 21:50.1 R Yes
472 Alana Koellner 41 AUS 21:50.5 R Yes
473 Laetitia BASTIEN 58 FRA 21:51.3 R Yes
474 Sharon Romilly 66 USA 21:51.9 R Race
474 Jodie Caldwell 46 GBR 21:51.9 R Yes
476 Christine Cappuzzo 45 USA 21:52.2 R Yes
477 Michelle Fisher 46 GBR 21:52.3 R Yes
478 Kate Crewdson 39 AUS 21:52.9 R Yes
479 Laura Magrath 54 CAN 21:53.4 R Yes
480 Frederika Horton 68 USA 21:53.7 R No
481 Mary Andre 54 USA 21:53.8 R Yes
481 Andrea Aquina 55 NED 21:53.8 R Yes
481 Amy Hamilton 42 GBR 21:53.8 R Yes
484 Priscila Wiggers 45 BRA 21:54.2 R Yes
485 Katlyn LeBold 34 USA 21:54.4 R Yes
485 Amy Sennes 46 USA 21:54.4 R No
487 Claire James 44 GBR 21:54.5 R Yes
488 Christie Wiebe 51 CAN 21:54.6 R Yes
489 Kristie Cronin 57 USA 21:54.8 R Yes
489 Esther Kiehl 52 GBR 21:54.8 R Yes
491 Hollie Bacon 20 GBR 21:55.2 R Yes
492 K Champion 35 USA 21:55.5 R Yes
492 Wendy Clements 59 GBR 21:55.5 R Yes
494 Alison Rasmussen 46 USA 21:56.0 R Yes
495 Patty Miller 65 USA 21:56.1 S Yes
496 Elizabeth Breston 61 USA 21:56.2 R Yes
497 Birgit Juel-Hansen 73 DEN 21:56.4 R No
498 Anne Laudenbach 40 GER 21:56.5 R Yes
499 Barbara Clarkson 40 GBR 21:56.6 R Yes
499 NATALIE SOUTH 40 GBR 21:56.6 R No